sensor_id;sensor_type;location;lat;lon;timestamp;P1;durP1;ratioP1;P2;durP2;ratioP2
84840;SDS011;75088;53.114;18.040;2024-03-22T00:00:58;23.50;;;15.00;;
84840;SDS011;75088;53.114;18.040;2024-03-22T00:03:21;25.60;;;14.30;;
84840;SDS011;75088;53.114;18.040;2024-03-22T00:04:28;27.80;;;16.90;;
84840;SDS011;75088;53.114;18.040;2024-03-22T00:05:34;25.80;;;15.90;;
84840;SDS011;75088;53.114;18.040;2024-03-22T00:06:40;25.90;;;16.30;;
84840;SDS011;75088;53.114;18.040;2024-03-22T00:07:47;29.70;;;17.90;;
84840;SDS011;75088;53.114;18.040;2024-03-22T00:08:54;25.70;;;14.90;;
84840;SDS011;75088;53.114;18.040;2024-03-22T00:10:00;25.40;;;15.90;;
84840;SDS011;75088;53.114;18.040;2024-03-22T00:11:07;24.50;;;15.60;;
84840;SDS011;75088;53.114;18.040;2024-03-22T00:12:13;24.70;;;14.50;;
84840;SDS011;75088;53.114;18.040;2024-03-22T00:13:19;26.60;;;17.00;;
84840;SDS011;75088;53.114;18.040;2024-03-22T00:14:26;26.50;;;16.90;;
84840;SDS011;75088;53.114;18.040;2024-03-22T00:15:32;25.60;;;16.40;;
84840;SDS011;75088;53.114;18.040;2024-03-22T00:16:38;29.30;;;17.30;;
84840;SDS011;75088;53.114;18.040;2024-03-22T00:17:45;28.40;;;16.60;;
84840;SDS011;75088;53.114;18.040;2024-03-22T00:18:51;28.30;;;17.10;;
84840;SDS011;75088;53.114;18.040;2024-03-22T00:19:58;29.10;;;16.90;;
84840;SDS011;75088;53.114;18.040;2024-03-22T00:21:05;29.70;;;17.60;;
84840;SDS011;75088;53.114;18.040;2024-03-22T00:22:11;28.00;;;17.00;;
84840;SDS011;75088;53.114;18.040;2024-03-22T00:23:18;28.60;;;17.00;;
84840;SDS011;75088;53.114;18.040;2024-03-22T00:24:25;29.80;;;17.70;;
84840;SDS011;75088;53.114;18.040;2024-03-22T00:25:31;31.20;;;18.10;;
84840;SDS011;75088;53.114;18.040;2024-03-22T00:26:38;32.70;;;18.40;;
84840;SDS011;75088;53.114;18.040;2024-03-22T00:27:44;32.10;;;18.50;;
84840;SDS011;75088;53.114;18.040;2024-03-22T00:28:50;33.20;;;18.60;;
84840;SDS011;75088;53.114;18.040;2024-03-22T00:29:57;35.00;;;18.30;;
84840;SDS011;75088;53.114;18.040;2024-03-22T00:31:04;31.60;;;18.20;;
84840;SDS011;75088;53.114;18.040;2024-03-22T00:32:10;35.40;;;19.80;;
84840;SDS011;75088;53.114;18.040;2024-03-22T00:33:16;29.90;;;18.20;;
84840;SDS011;75088;53.114;18.040;2024-03-22T00:34:23;33.00;;;19.10;;
84840;SDS011;75088;53.114;18.040;2024-03-22T00:35:29;31.30;;;18.00;;
84840;SDS011;75088;53.114;18.040;2024-03-22T00:36:35;32.80;;;18.60;;
84840;SDS011;75088;53.114;18.040;2024-03-22T00:37:41;35.50;;;19.00;;
84840;SDS011;75088;53.114;18.040;2024-03-22T00:38:48;31.20;;;17.60;;
84840;SDS011;75088;53.114;18.040;2024-03-22T00:39:54;32.60;;;18.60;;
84840;SDS011;75088;53.114;18.040;2024-03-22T00:41:01;33.30;;;18.10;;
84840;SDS011;75088;53.114;18.040;2024-03-22T00:42:07;35.60;;;20.30;;
84840;SDS011;75088;53.114;18.040;2024-03-22T00:43:13;33.10;;;18.60;;
84840;SDS011;75088;53.114;18.040;2024-03-22T00:44:20;31.60;;;18.00;;
84840;SDS011;75088;53.114;18.040;2024-03-22T00:45:26;35.30;;;19.50;;
84840;SDS011;75088;53.114;18.040;2024-03-22T00:46:32;35.50;;;19.40;;
84840;SDS011;75088;53.114;18.040;2024-03-22T00:47:39;34.60;;;20.30;;
84840;SDS011;75088;53.114;18.040;2024-03-22T00:48:45;31.90;;;17.50;;
84840;SDS011;75088;53.114;18.040;2024-03-22T00:49:52;34.10;;;20.00;;
84840;SDS011;75088;53.114;18.040;2024-03-22T00:50:58;30.90;;;18.40;;
84840;SDS011;75088;53.114;18.040;2024-03-22T00:52:05;33.10;;;18.90;;
84840;SDS011;75088;53.114;18.040;2024-03-22T00:53:11;33.10;;;19.20;;
84840;SDS011;75088;53.114;18.040;2024-03-22T00:54:17;34.80;;;21.00;;
84840;SDS011;75088;53.114;18.040;2024-03-22T00:55:23;36.40;;;18.50;;
84840;SDS011;75088;53.114;18.040;2024-03-22T00:56:30;33.20;;;18.30;;
84840;SDS011;75088;53.114;18.040;2024-03-22T00:57:36;32.40;;;19.20;;
84840;SDS011;75088;53.114;18.040;2024-03-22T00:58:43;32.20;;;18.10;;
84840;SDS011;75088;53.114;18.040;2024-03-22T00:59:49;33.50;;;17.70;;
84840;SDS011;75088;53.114;18.040;2024-03-22T01:00:55;36.70;;;18.80;;
84840;SDS011;75088;53.114;18.040;2024-03-22T01:02:01;34.80;;;17.80;;
84840;SDS011;75088;53.114;18.040;2024-03-22T01:03:08;32.50;;;17.40;;
84840;SDS011;75088;53.114;18.040;2024-03-22T01:04:15;34.40;;;18.70;;
84840;SDS011;75088;53.114;18.040;2024-03-22T01:05:21;32.80;;;16.80;;
84840;SDS011;75088;53.114;18.040;2024-03-22T01:06:28;33.70;;;19.10;;
84840;SDS011;75088;53.114;18.040;2024-03-22T01:07:35;32.90;;;18.40;;
84840;SDS011;75088;53.114;18.040;2024-03-22T01:08:42;32.70;;;18.80;;
84840;SDS011;75088;53.114;18.040;2024-03-22T01:09:48;33.90;;;18.20;;
84840;SDS011;75088;53.114;18.040;2024-03-22T01:10:54;33.70;;;18.60;;
84840;SDS011;75088;53.114;18.040;2024-03-22T01:12:01;40.60;;;21.10;;
84840;SDS011;75088;53.114;18.040;2024-03-22T01:13:08;37.10;;;19.90;;
84840;SDS011;75088;53.114;18.040;2024-03-22T01:14:14;39.00;;;19.90;;
84840;SDS011;75088;53.114;18.040;2024-03-22T01:15:21;38.40;;;19.50;;
84840;SDS011;75088;53.114;18.040;2024-03-22T01:16:27;36.50;;;19.40;;
84840;SDS011;75088;53.114;18.040;2024-03-22T01:17:33;37.20;;;19.20;;
84840;SDS011;75088;53.114;18.040;2024-03-22T01:18:40;40.00;;;20.50;;
84840;SDS011;75088;53.114;18.040;2024-03-22T01:19:46;35.80;;;18.40;;
84840;SDS011;75088;53.114;18.040;2024-03-22T01:20:53;36.70;;;19.90;;
84840;SDS011;75088;53.114;18.040;2024-03-22T01:21:59;35.40;;;19.30;;
84840;SDS011;75088;53.114;18.040;2024-03-22T01:23:05;37.60;;;19.50;;
84840;SDS011;75088;53.114;18.040;2024-03-22T01:24:11;39.40;;;21.20;;
84840;SDS011;75088;53.114;18.040;2024-03-22T01:25:18;37.10;;;20.10;;
84840;SDS011;75088;53.114;18.040;2024-03-22T01:26:24;39.90;;;21.30;;
84840;SDS011;75088;53.114;18.040;2024-03-22T01:27:30;36.40;;;20.30;;
84840;SDS011;75088;53.114;18.040;2024-03-22T01:28:37;41.40;;;21.20;;
84840;SDS011;75088;53.114;18.040;2024-03-22T01:29:43;38.80;;;19.60;;
84840;SDS011;75088;53.114;18.040;2024-03-22T01:30:50;39.60;;;20.30;;
84840;SDS011;75088;53.114;18.040;2024-03-22T01:31:57;40.50;;;21.00;;
84840;SDS011;75088;53.114;18.040;2024-03-22T01:33:04;40.50;;;22.10;;
84840;SDS011;75088;53.114;18.040;2024-03-22T01:34:10;38.20;;;20.20;;
84840;SDS011;75088;53.114;18.040;2024-03-22T01:35:17;40.50;;;20.60;;
84840;SDS011;75088;53.114;18.040;2024-03-22T01:36:23;37.90;;;18.80;;
84840;SDS011;75088;53.114;18.040;2024-03-22T01:37:29;37.50;;;20.10;;
84840;SDS011;75088;53.114;18.040;2024-03-22T01:38:36;41.10;;;21.70;;
84840;SDS011;75088;53.114;18.040;2024-03-22T01:39:42;43.30;;;20.90;;
84840;SDS011;75088;53.114;18.040;2024-03-22T01:40:49;45.70;;;23.10;;
84840;SDS011;75088;53.114;18.040;2024-03-22T01:41:55;44.30;;;21.40;;
84840;SDS011;75088;53.114;18.040;2024-03-22T01:43:02;42.60;;;23.10;;
84840;SDS011;75088;53.114;18.040;2024-03-22T01:44:08;44.00;;;22.40;;
84840;SDS011;75088;53.114;18.040;2024-03-22T01:45:17;45.40;;;21.60;;
84840;SDS011;75088;53.114;18.040;2024-03-22T01:46:24;39.30;;;20.90;;
84840;SDS011;75088;53.114;18.040;2024-03-22T01:47:31;43.50;;;23.80;;
84840;SDS011;75088;53.114;18.040;2024-03-22T01:48:37;46.30;;;21.70;;
84840;SDS011;75088;53.114;18.040;2024-03-22T01:49:45;48.50;;;23.10;;
84840;SDS011;75088;53.114;18.040;2024-03-22T01:50:53;46.90;;;21.80;;
84840;SDS011;75088;53.114;18.040;2024-03-22T01:51:59;45.20;;;22.40;;
84840;SDS011;75088;53.114;18.040;2024-03-22T01:53:07;51.00;;;23.80;;
84840;SDS011;75088;53.114;18.040;2024-03-22T01:54:13;49.40;;;23.40;;
84840;SDS011;75088;53.114;18.040;2024-03-22T01:55:21;47.80;;;23.50;;
84840;SDS011;75088;53.114;18.040;2024-03-22T01:56:28;49.20;;;22.60;;
84840;SDS011;75088;53.114;18.040;2024-03-22T01:57:35;45.70;;;22.10;;
84840;SDS011;75088;53.114;18.040;2024-03-22T01:58:43;47.90;;;22.30;;
84840;SDS011;75088;53.114;18.040;2024-03-22T01:59:50;45.90;;;21.20;;
84840;SDS011;75088;53.114;18.040;2024-03-22T02:00:58;50.50;;;23.30;;
84840;SDS011;75088;53.114;18.040;2024-03-22T02:02:05;49.20;;;23.00;;
84840;SDS011;75088;53.114;18.040;2024-03-22T02:03:12;47.50;;;22.10;;
84840;SDS011;75088;53.114;18.040;2024-03-22T02:04:18;47.90;;;22.10;;
84840;SDS011;75088;53.114;18.040;2024-03-22T02:05:26;48.10;;;23.30;;
84840;SDS011;75088;53.114;18.040;2024-03-22T02:06:32;51.50;;;22.70;;
84840;SDS011;75088;53.114;18.040;2024-03-22T02:07:39;50.00;;;22.40;;
84840;SDS011;75088;53.114;18.040;2024-03-22T02:08:46;51.40;;;24.10;;
84840;SDS011;75088;53.114;18.040;2024-03-22T02:09:52;51.60;;;23.40;;
84840;SDS011;75088;53.114;18.040;2024-03-22T02:10:59;54.80;;;24.80;;
84840;SDS011;75088;53.114;18.040;2024-03-22T02:12:06;48.80;;;22.90;;
84840;SDS011;75088;53.114;18.040;2024-03-22T02:13:13;49.80;;;23.40;;
84840;SDS011;75088;53.114;18.040;2024-03-22T02:14:20;55.50;;;25.40;;
84840;SDS011;75088;53.114;18.040;2024-03-22T02:15:27;51.00;;;24.30;;
84840;SDS011;75088;53.114;18.040;2024-03-22T02:16:33;51.00;;;24.10;;
84840;SDS011;75088;53.114;18.040;2024-03-22T02:17:40;50.60;;;23.30;;
84840;SDS011;75088;53.114;18.040;2024-03-22T02:18:46;56.50;;;24.60;;
84840;SDS011;75088;53.114;18.040;2024-03-22T02:19:54;57.20;;;25.20;;
84840;SDS011;75088;53.114;18.040;2024-03-22T02:21:00;58.30;;;24.30;;
84840;SDS011;75088;53.114;18.040;2024-03-22T02:22:08;52.90;;;24.70;;
84840;SDS011;75088;53.114;18.040;2024-03-22T02:23:14;53.30;;;24.40;;
84840;SDS011;75088;53.114;18.040;2024-03-22T02:24:21;58.20;;;26.20;;
84840;SDS011;75088;53.114;18.040;2024-03-22T02:25:28;56.60;;;25.00;;
84840;SDS011;75088;53.114;18.040;2024-03-22T02:26:34;56.00;;;25.50;;
84840;SDS011;75088;53.114;18.040;2024-03-22T02:27:41;55.10;;;23.10;;
84840;SDS011;75088;53.114;18.040;2024-03-22T02:28:47;56.20;;;24.80;;
84840;SDS011;75088;53.114;18.040;2024-03-22T02:29:55;51.10;;;23.90;;
84840;SDS011;75088;53.114;18.040;2024-03-22T02:31:01;53.50;;;24.50;;
84840;SDS011;75088;53.114;18.040;2024-03-22T02:32:09;51.60;;;23.90;;
84840;SDS011;75088;53.114;18.040;2024-03-22T02:33:15;52.40;;;24.90;;
84840;SDS011;75088;53.114;18.040;2024-03-22T02:34:22;51.70;;;24.10;;
84840;SDS011;75088;53.114;18.040;2024-03-22T02:35:28;50.80;;;23.20;;
84840;SDS011;75088;53.114;18.040;2024-03-22T02:36:35;54.20;;;25.30;;
84840;SDS011;75088;53.114;18.040;2024-03-22T02:37:41;52.40;;;25.40;;
84840;SDS011;75088;53.114;18.040;2024-03-22T02:38:48;53.10;;;22.90;;
84840;SDS011;75088;53.114;18.040;2024-03-22T02:39:54;50.50;;;23.10;;
84840;SDS011;75088;53.114;18.040;2024-03-22T02:41:01;48.60;;;23.50;;
84840;SDS011;75088;53.114;18.040;2024-03-22T02:42:08;44.80;;;22.90;;
84840;SDS011;75088;53.114;18.040;2024-03-22T02:43:14;49.60;;;23.00;;
84840;SDS011;75088;53.114;18.040;2024-03-22T02:44:22;51.50;;;22.20;;
84840;SDS011;75088;53.114;18.040;2024-03-22T02:45:29;52.70;;;23.30;;
84840;SDS011;75088;53.114;18.040;2024-03-22T02:46:37;45.60;;;20.60;;
84840;SDS011;75088;53.114;18.040;2024-03-22T02:47:43;46.50;;;22.70;;
84840;SDS011;75088;53.114;18.040;2024-03-22T02:48:50;46.40;;;22.30;;
84840;SDS011;75088;53.114;18.040;2024-03-22T02:49:56;44.10;;;21.50;;
84840;SDS011;75088;53.114;18.040;2024-03-22T02:51:03;45.90;;;21.50;;
84840;SDS011;75088;53.114;18.040;2024-03-22T02:52:10;45.10;;;20.60;;
84840;SDS011;75088;53.114;18.040;2024-03-22T02:53:17;43.70;;;21.20;;
84840;SDS011;75088;53.114;18.040;2024-03-22T02:54:23;44.30;;;20.60;;
84840;SDS011;75088;53.114;18.040;2024-03-22T02:55:30;47.00;;;21.90;;
84840;SDS011;75088;53.114;18.040;2024-03-22T02:56:40;40.90;;;20.00;;
84840;SDS011;75088;53.114;18.040;2024-03-22T02:57:48;47.10;;;21.40;;
84840;SDS011;75088;53.114;18.040;2024-03-22T02:58:55;45.50;;;22.30;;
84840;SDS011;75088;53.114;18.040;2024-03-22T03:00:01;46.60;;;21.80;;
84840;SDS011;75088;53.114;18.040;2024-03-22T03:01:09;46.50;;;22.10;;
84840;SDS011;75088;53.114;18.040;2024-03-22T03:02:16;49.50;;;23.10;;
84840;SDS011;75088;53.114;18.040;2024-03-22T03:03:22;47.80;;;20.90;;
84840;SDS011;75088;53.114;18.040;2024-03-22T03:04:29;43.90;;;21.20;;
84840;SDS011;75088;53.114;18.040;2024-03-22T03:05:36;48.40;;;22.90;;
84840;SDS011;75088;53.114;18.040;2024-03-22T03:06:42;45.40;;;22.50;;
84840;SDS011;75088;53.114;18.040;2024-03-22T03:07:49;43.10;;;21.40;;
84840;SDS011;75088;53.114;18.040;2024-03-22T03:08:55;42.80;;;21.50;;
84840;SDS011;75088;53.114;18.040;2024-03-22T03:10:02;46.60;;;22.60;;
84840;SDS011;75088;53.114;18.040;2024-03-22T03:11:09;46.40;;;22.30;;
84840;SDS011;75088;53.114;18.040;2024-03-22T03:12:15;43.90;;;22.10;;
84840;SDS011;75088;53.114;18.040;2024-03-22T03:13:22;44.30;;;20.90;;
84840;SDS011;75088;53.114;18.040;2024-03-22T03:14:29;46.00;;;21.60;;
84840;SDS011;75088;53.114;18.040;2024-03-22T03:15:36;45.70;;;21.90;;
84840;SDS011;75088;53.114;18.040;2024-03-22T03:16:42;44.50;;;22.30;;
84840;SDS011;75088;53.114;18.040;2024-03-22T03:17:49;41.80;;;19.50;;
84840;SDS011;75088;53.114;18.040;2024-03-22T03:18:56;48.10;;;22.30;;
84840;SDS011;75088;53.114;18.040;2024-03-22T03:20:03;45.30;;;20.50;;
84840;SDS011;75088;53.114;18.040;2024-03-22T03:21:16;42.90;;;19.60;;
84840;SDS011;75088;53.114;18.040;2024-03-22T03:22:23;45.80;;;21.50;;
84840;SDS011;75088;53.114;18.040;2024-03-22T03:23:29;52.50;;;23.40;;
84840;SDS011;75088;53.114;18.040;2024-03-22T03:24:36;63.00;;;26.80;;
84840;SDS011;75088;53.114;18.040;2024-03-22T03:25:42;58.10;;;26.10;;
84840;SDS011;75088;53.114;18.040;2024-03-22T03:26:48;69.30;;;29.30;;
84840;SDS011;75088;53.114;18.040;2024-03-22T03:27:54;67.90;;;28.20;;
84840;SDS011;75088;53.114;18.040;2024-03-22T03:29:01;82.20;;;30.90;;
84840;SDS011;75088;53.114;18.040;2024-03-22T03:30:08;78.00;;;30.90;;
84840;SDS011;75088;53.114;18.040;2024-03-22T03:31:15;74.10;;;30.30;;
84840;SDS011;75088;53.114;18.040;2024-03-22T03:32:22;72.20;;;28.40;;
84840;SDS011;75088;53.114;18.040;2024-03-22T03:33:28;72.20;;;28.20;;
84840;SDS011;75088;53.114;18.040;2024-03-22T03:34:35;80.60;;;32.10;;
84840;SDS011;75088;53.114;18.040;2024-03-22T03:35:41;75.20;;;31.00;;
84840;SDS011;75088;53.114;18.040;2024-03-22T03:36:51;74.20;;;29.70;;
84840;SDS011;75088;53.114;18.040;2024-03-22T03:37:58;66.90;;;27.30;;
84840;SDS011;75088;53.114;18.040;2024-03-22T03:39:05;77.20;;;31.60;;
84840;SDS011;75088;53.114;18.040;2024-03-22T03:40:12;74.00;;;31.40;;
84840;SDS011;75088;53.114;18.040;2024-03-22T03:41:18;70.30;;;27.80;;
84840;SDS011;75088;53.114;18.040;2024-03-22T03:42:25;67.20;;;27.20;;
84840;SDS011;75088;53.114;18.040;2024-03-22T03:43:31;67.40;;;27.90;;
84840;SDS011;75088;53.114;18.040;2024-03-22T03:44:38;71.80;;;29.70;;
84840;SDS011;75088;53.114;18.040;2024-03-22T03:45:45;63.90;;;27.90;;
84840;SDS011;75088;53.114;18.040;2024-03-22T03:46:52;60.10;;;25.90;;
84840;SDS011;75088;53.114;18.040;2024-03-22T03:47:58;60.80;;;25.90;;
84840;SDS011;75088;53.114;18.040;2024-03-22T03:49:04;63.50;;;27.80;;
84840;SDS011;75088;53.114;18.040;2024-03-22T03:50:12;57.80;;;26.10;;
84840;SDS011;75088;53.114;18.040;2024-03-22T03:51:18;61.90;;;27.00;;
84840;SDS011;75088;53.114;18.040;2024-03-22T03:52:24;60.90;;;25.80;;
84840;SDS011;75088;53.114;18.040;2024-03-22T03:53:31;60.20;;;24.90;;
84840;SDS011;75088;53.114;18.040;2024-03-22T03:54:37;55.20;;;25.20;;
84840;SDS011;75088;53.114;18.040;2024-03-22T03:55:44;55.20;;;24.30;;
84840;SDS011;75088;53.114;18.040;2024-03-22T03:56:50;52.40;;;22.80;;
84840;SDS011;75088;53.114;18.040;2024-03-22T03:57:56;52.20;;;22.50;;
84840;SDS011;75088;53.114;18.040;2024-03-22T03:59:03;53.30;;;23.00;;
84840;SDS011;75088;53.114;18.040;2024-03-22T04:00:11;50.00;;;23.20;;
84840;SDS011;75088;53.114;18.040;2024-03-22T04:01:18;44.70;;;21.20;;
84840;SDS011;75088;53.114;18.040;2024-03-22T04:02:25;52.70;;;23.80;;
84840;SDS011;75088;53.114;18.040;2024-03-22T04:03:31;46.00;;;21.80;;
84840;SDS011;75088;53.114;18.040;2024-03-22T04:04:38;55.10;;;24.10;;
84840;SDS011;75088;53.114;18.040;2024-03-22T04:05:45;51.50;;;23.50;;
84840;SDS011;75088;53.114;18.040;2024-03-22T04:06:51;48.70;;;23.10;;
84840;SDS011;75088;53.114;18.040;2024-03-22T04:07:57;48.10;;;21.90;;
84840;SDS011;75088;53.114;18.040;2024-03-22T04:09:04;49.20;;;23.30;;
84840;SDS011;75088;53.114;18.040;2024-03-22T04:10:11;50.40;;;24.10;;
84840;SDS011;75088;53.114;18.040;2024-03-22T04:11:17;51.50;;;23.90;;
84840;SDS011;75088;53.114;18.040;2024-03-22T04:12:23;46.40;;;23.10;;
84840;SDS011;75088;53.114;18.040;2024-03-22T04:13:30;52.20;;;26.10;;
84840;SDS011;75088;53.114;18.040;2024-03-22T04:14:37;51.80;;;25.20;;
84840;SDS011;75088;53.114;18.040;2024-03-22T04:15:43;48.60;;;22.70;;
84840;SDS011;75088;53.114;18.040;2024-03-22T04:16:50;42.20;;;20.40;;
84840;SDS011;75088;53.114;18.040;2024-03-22T04:17:58;48.20;;;22.90;;
84840;SDS011;75088;53.114;18.040;2024-03-22T04:19:04;48.10;;;22.90;;
84840;SDS011;75088;53.114;18.040;2024-03-22T04:20:12;41.60;;;20.80;;
84840;SDS011;75088;53.114;18.040;2024-03-22T04:21:18;42.10;;;20.80;;
84840;SDS011;75088;53.114;18.040;2024-03-22T04:22:25;42.30;;;20.10;;
84840;SDS011;75088;53.114;18.040;2024-03-22T04:23:31;45.60;;;21.20;;
84840;SDS011;75088;53.114;18.040;2024-03-22T04:24:38;45.00;;;20.30;;
84840;SDS011;75088;53.114;18.040;2024-03-22T04:25:52;43.60;;;20.10;;
84840;SDS011;75088;53.114;18.040;2024-03-22T04:26:59;43.60;;;21.30;;
84840;SDS011;75088;53.114;18.040;2024-03-22T04:28:06;40.50;;;19.40;;
84840;SDS011;75088;53.114;18.040;2024-03-22T04:29:12;39.80;;;19.90;;
84840;SDS011;75088;53.114;18.040;2024-03-22T04:30:18;38.10;;;18.50;;
84840;SDS011;75088;53.114;18.040;2024-03-22T04:31:25;40.00;;;20.10;;
84840;SDS011;75088;53.114;18.040;2024-03-22T04:32:31;38.80;;;19.50;;
84840;SDS011;75088;53.114;18.040;2024-03-22T04:33:38;39.70;;;19.40;;
84840;SDS011;75088;53.114;18.040;2024-03-22T04:34:44;40.90;;;19.30;;
84840;SDS011;75088;53.114;18.040;2024-03-22T04:35:51;45.10;;;19.90;;
84840;SDS011;75088;53.114;18.040;2024-03-22T04:36:57;39.60;;;18.80;;
84840;SDS011;75088;53.114;18.040;2024-03-22T04:38:04;39.70;;;18.30;;
84840;SDS011;75088;53.114;18.040;2024-03-22T04:39:10;40.10;;;18.80;;
84840;SDS011;75088;53.114;18.040;2024-03-22T04:40:17;38.10;;;18.40;;
84840;SDS011;75088;53.114;18.040;2024-03-22T04:41:24;38.80;;;18.80;;
84840;SDS011;75088;53.114;18.040;2024-03-22T04:42:30;39.00;;;18.40;;
84840;SDS011;75088;53.114;18.040;2024-03-22T04:43:37;39.30;;;18.70;;
84840;SDS011;75088;53.114;18.040;2024-03-22T04:44:43;39.60;;;19.30;;
84840;SDS011;75088;53.114;18.040;2024-03-22T04:45:50;36.80;;;17.50;;
84840;SDS011;75088;53.114;18.040;2024-03-22T04:46:56;39.70;;;20.50;;
84840;SDS011;75088;53.114;18.040;2024-03-22T04:48:03;38.30;;;18.90;;
84840;SDS011;75088;53.114;18.040;2024-03-22T04:49:10;41.80;;;19.10;;
84840;SDS011;75088;53.114;18.040;2024-03-22T04:50:17;39.80;;;19.40;;
84840;SDS011;75088;53.114;18.040;2024-03-22T04:51:23;38.00;;;17.90;;
84840;SDS011;75088;53.114;18.040;2024-03-22T04:52:29;38.30;;;19.00;;
84840;SDS011;75088;53.114;18.040;2024-03-22T04:53:36;40.70;;;21.60;;
84840;SDS011;75088;53.114;18.040;2024-03-22T04:54:43;38.70;;;19.80;;
84840;SDS011;75088;53.114;18.040;2024-03-22T04:55:51;37.00;;;18.70;;
84840;SDS011;75088;53.114;18.040;2024-03-22T04:58:27;35.80;;;17.60;;
84840;SDS011;75088;53.114;18.040;2024-03-22T04:59:34;41.30;;;17.70;;
84840;SDS011;75088;53.114;18.040;2024-03-22T05:00:40;35.60;;;18.60;;
84840;SDS011;75088;53.114;18.040;2024-03-22T05:01:47;37.80;;;18.40;;
84840;SDS011;75088;53.114;18.040;2024-03-22T05:02:53;36.50;;;18.30;;
84840;SDS011;75088;53.114;18.040;2024-03-22T05:04:00;35.60;;;17.40;;
84840;SDS011;75088;53.114;18.040;2024-03-22T05:05:06;41.20;;;20.00;;
84840;SDS011;75088;53.114;18.040;2024-03-22T05:06:13;36.00;;;18.20;;
84840;SDS011;75088;53.114;18.040;2024-03-22T05:07:19;33.10;;;16.50;;
84840;SDS011;75088;53.114;18.040;2024-03-22T05:08:26;36.20;;;17.50;;
84840;SDS011;75088;53.114;18.040;2024-03-22T05:09:32;33.70;;;16.60;;
84840;SDS011;75088;53.114;18.040;2024-03-22T05:10:38;35.20;;;16.50;;
84840;SDS011;75088;53.114;18.040;2024-03-22T05:11:46;34.90;;;16.80;;
84840;SDS011;75088;53.114;18.040;2024-03-22T05:12:54;34.10;;;16.50;;
84840;SDS011;75088;53.114;18.040;2024-03-22T05:14:01;32.60;;;15.80;;
84840;SDS011;75088;53.114;18.040;2024-03-22T05:15:08;34.20;;;18.90;;
84840;SDS011;75088;53.114;18.040;2024-03-22T05:16:15;33.00;;;17.00;;
84840;SDS011;75088;53.114;18.040;2024-03-22T05:17:21;30.40;;;15.20;;
84840;SDS011;75088;53.114;18.040;2024-03-22T05:18:27;49.40;;;24.90;;
84840;SDS011;75088;53.114;18.040;2024-03-22T05:19:33;37.40;;;19.90;;
84840;SDS011;75088;53.114;18.040;2024-03-22T05:20:40;31.30;;;15.30;;
84840;SDS011;75088;53.114;18.040;2024-03-22T05:21:46;31.40;;;14.00;;
84840;SDS011;75088;53.114;18.040;2024-03-22T05:22:53;29.20;;;14.80;;
84840;SDS011;75088;53.114;18.040;2024-03-22T05:24:00;29.40;;;15.00;;
84840;SDS011;75088;53.114;18.040;2024-03-22T05:25:07;28.00;;;14.20;;
84840;SDS011;75088;53.114;18.040;2024-03-22T05:26:14;28.90;;;14.30;;
84840;SDS011;75088;53.114;18.040;2024-03-22T05:27:22;27.90;;;14.10;;
84840;SDS011;75088;53.114;18.040;2024-03-22T05:28:28;27.60;;;14.30;;
84840;SDS011;75088;53.114;18.040;2024-03-22T05:29:35;27.70;;;14.10;;
84840;SDS011;75088;53.114;18.040;2024-03-22T05:30:41;28.90;;;13.80;;
84840;SDS011;75088;53.114;18.040;2024-03-22T05:31:49;31.60;;;16.10;;
84840;SDS011;75088;53.114;18.040;2024-03-22T05:32:55;29.60;;;14.70;;
84840;SDS011;75088;53.114;18.040;2024-03-22T05:34:01;26.00;;;12.30;;
84840;SDS011;75088;53.114;18.040;2024-03-22T05:35:08;29.80;;;14.00;;
84840;SDS011;75088;53.114;18.040;2024-03-22T05:36:14;29.00;;;13.00;;
84840;SDS011;75088;53.114;18.040;2024-03-22T05:37:21;27.40;;;13.20;;
84840;SDS011;75088;53.114;18.040;2024-03-22T05:38:28;24.70;;;12.80;;
84840;SDS011;75088;53.114;18.040;2024-03-22T05:39:34;25.50;;;12.70;;
84840;SDS011;75088;53.114;18.040;2024-03-22T05:40:40;27.50;;;12.50;;
84840;SDS011;75088;53.114;18.040;2024-03-22T05:41:49;26.30;;;13.50;;
84840;SDS011;75088;53.114;18.040;2024-03-22T05:42:55;24.80;;;13.00;;
84840;SDS011;75088;53.114;18.040;2024-03-22T05:44:01;27.40;;;14.80;;
84840;SDS011;75088;53.114;18.040;2024-03-22T05:45:08;30.70;;;17.60;;
84840;SDS011;75088;53.114;18.040;2024-03-22T05:46:15;29.10;;;14.80;;
84840;SDS011;75088;53.114;18.040;2024-03-22T05:47:22;26.10;;;14.00;;
84840;SDS011;75088;53.114;18.040;2024-03-22T05:48:28;29.00;;;14.80;;
84840;SDS011;75088;53.114;18.040;2024-03-22T05:49:34;24.90;;;12.40;;
84840;SDS011;75088;53.114;18.040;2024-03-22T05:50:41;23.70;;;11.90;;
84840;SDS011;75088;53.114;18.040;2024-03-22T05:51:48;34.30;;;17.00;;
84840;SDS011;75088;53.114;18.040;2024-03-22T05:52:54;25.90;;;12.50;;
84840;SDS011;75088;53.114;18.040;2024-03-22T05:54:00;22.90;;;11.70;;
84840;SDS011;75088;53.114;18.040;2024-03-22T05:55:07;25.10;;;12.20;;
84840;SDS011;75088;53.114;18.040;2024-03-22T05:56:13;27.70;;;13.40;;
84840;SDS011;75088;53.114;18.040;2024-03-22T05:57:20;23.10;;;11.60;;
84840;SDS011;75088;53.114;18.040;2024-03-22T05:58:27;26.80;;;13.10;;
84840;SDS011;75088;53.114;18.040;2024-03-22T05:59:34;23.40;;;12.10;;
84840;SDS011;75088;53.114;18.040;2024-03-22T06:00:40;25.60;;;13.20;;
84840;SDS011;75088;53.114;18.040;2024-03-22T06:01:46;29.70;;;14.60;;
84840;SDS011;75088;53.114;18.040;2024-03-22T06:02:53;26.80;;;12.90;;
84840;SDS011;75088;53.114;18.040;2024-03-22T06:04:00;31.30;;;15.90;;
84840;SDS011;75088;53.114;18.040;2024-03-22T06:05:06;27.60;;;13.30;;
84840;SDS011;75088;53.114;18.040;2024-03-22T06:06:13;29.10;;;15.00;;
84840;SDS011;75088;53.114;18.040;2024-03-22T06:07:20;32.10;;;17.30;;
84840;SDS011;75088;53.114;18.040;2024-03-22T06:08:27;25.20;;;14.00;;
84840;SDS011;75088;53.114;18.040;2024-03-22T06:09:35;28.00;;;14.30;;
84840;SDS011;75088;53.114;18.040;2024-03-22T06:10:49;25.70;;;12.70;;
84840;SDS011;75088;53.114;18.040;2024-03-22T06:11:55;33.60;;;18.00;;
84840;SDS011;75088;53.114;18.040;2024-03-22T06:13:01;35.70;;;20.30;;
84840;SDS011;75088;53.114;18.040;2024-03-22T06:14:08;29.00;;;14.60;;
84840;SDS011;75088;53.114;18.040;2024-03-22T06:15:15;29.70;;;18.10;;
84840;SDS011;75088;53.114;18.040;2024-03-22T06:16:22;26.60;;;15.20;;
84840;SDS011;75088;53.114;18.040;2024-03-22T06:17:28;26.40;;;13.10;;
84840;SDS011;75088;53.114;18.040;2024-03-22T06:18:35;27.10;;;13.30;;
84840;SDS011;75088;53.114;18.040;2024-03-22T06:19:42;24.30;;;12.50;;
84840;SDS011;75088;53.114;18.040;2024-03-22T06:20:48;26.40;;;13.00;;
84840;SDS011;75088;53.114;18.040;2024-03-22T06:21:58;23.50;;;12.10;;
84840;SDS011;75088;53.114;18.040;2024-03-22T06:23:04;27.50;;;13.70;;
84840;SDS011;75088;53.114;18.040;2024-03-22T06:24:12;31.50;;;16.90;;
84840;SDS011;75088;53.114;18.040;2024-03-22T06:25:18;72.40;;;36.10;;
84840;SDS011;75088;53.114;18.040;2024-03-22T06:26:25;127.60;;;76.00;;
84840;SDS011;75088;53.114;18.040;2024-03-22T06:27:32;33.80;;;17.10;;